sensor_id;sensor_type;location;lat;lon;timestamp;P1;durP1;ratioP1;P2;durP2;ratioP2
51296;SDS011;37380;45.186;9.792;2023-04-25T00:00:41;1.50;;;1.40;;
51296;SDS011;37380;45.186;9.792;2023-04-25T00:03:08;7.25;;;1.95;;
51296;SDS011;37380;45.186;9.792;2023-04-25T00:05:37;11.25;;;1.70;;
51296;SDS011;37380;45.186;9.792;2023-04-25T00:08:07;4.25;;;1.80;;
51296;SDS011;37380;45.186;9.792;2023-04-25T00:10:38;2.35;;;1.90;;
51296;SDS011;37380;45.186;9.792;2023-04-25T00:13:08;2.30;;;1.88;;
51296;SDS011;37380;45.186;9.792;2023-04-25T00:15:38;4.70;;;1.30;;
51296;SDS011;37380;45.186;9.792;2023-04-25T00:18:11;3.35;;;1.42;;
51296;SDS011;37380;45.186;9.792;2023-04-25T00:20:44;3.35;;;2.08;;
51296;SDS011;37380;45.186;9.792;2023-04-25T00:23:14;8.27;;;1.70;;
51296;SDS011;37380;45.186;9.792;2023-04-25T00:25:46;1.67;;;1.50;;
51296;SDS011;37380;45.186;9.792;2023-04-25T00:28:25;6.47;;;1.95;;
51296;SDS011;37380;45.186;9.792;2023-04-25T00:31:23;3.08;;;1.40;;
51296;SDS011;37380;45.186;9.792;2023-04-25T00:33:51;2.08;;;1.65;;
51296;SDS011;37380;45.186;9.792;2023-04-25T00:36:25;10.70;;;1.42;;
51296;SDS011;37380;45.186;9.792;2023-04-25T00:39:04;3.80;;;1.55;;
51296;SDS011;37380;45.186;9.792;2023-04-25T00:42:05;1.27;;;1.10;;
51296;SDS011;37380;45.186;9.792;2023-04-25T00:45:02;2.58;;;1.73;;
51296;SDS011;37380;45.186;9.792;2023-04-25T00:47:33;0.95;;;0.95;;
51296;SDS011;37380;45.186;9.792;2023-04-25T00:50:02;1.50;;;1.20;;
51296;SDS011;37380;45.186;9.792;2023-04-25T00:52:31;3.63;;;1.60;;
51296;SDS011;37380;45.186;9.792;2023-04-25T00:54:59;3.70;;;1.80;;
51296;SDS011;37380;45.186;9.792;2023-04-25T00:57:29;1.30;;;1.20;;
51296;SDS011;37380;45.186;9.792;2023-04-25T00:59:57;5.72;;;1.52;;
51296;SDS011;37380;45.186;9.792;2023-04-25T01:02:32;1.95;;;1.77;;
51296;SDS011;37380;45.186;9.792;2023-04-25T01:05:03;4.20;;;1.65;;
51296;SDS011;37380;45.186;9.792;2023-04-25T01:07:34;2.15;;;1.92;;
51296;SDS011;37380;45.186;9.792;2023-04-25T01:10:03;2.33;;;1.88;;
51296;SDS011;37380;45.186;9.792;2023-04-25T01:12:33;6.18;;;1.88;;
51296;SDS011;37380;45.186;9.792;2023-04-25T01:15:05;2.80;;;2.55;;
51296;SDS011;37380;45.186;9.792;2023-04-25T01:17:40;2.55;;;1.77;;
51296;SDS011;37380;45.186;9.792;2023-04-25T01:20:14;3.83;;;1.90;;
51296;SDS011;37380;45.186;9.792;2023-04-25T01:22:44;3.10;;;2.05;;
51296;SDS011;37380;45.186;9.792;2023-04-25T01:25:16;8.48;;;2.00;;
51296;SDS011;37380;45.186;9.792;2023-04-25T01:27:56;2.00;;;1.88;;
51296;SDS011;37380;45.186;9.792;2023-04-25T01:30:45;2.78;;;2.08;;
51296;SDS011;37380;45.186;9.792;2023-04-25T01:33:16;2.42;;;1.67;;
51296;SDS011;37380;45.186;9.792;2023-04-25T01:35:49;4.95;;;1.60;;
51296;SDS011;37380;45.186;9.792;2023-04-25T01:38:25;2.35;;;1.98;;
51296;SDS011;37380;45.186;9.792;2023-04-25T01:41:21;12.40;;;2.35;;
51296;SDS011;37380;45.186;9.792;2023-04-25T01:43:54;4.30;;;1.60;;
51296;SDS011;37380;45.186;9.792;2023-04-25T01:46:22;2.40;;;1.92;;
51296;SDS011;37380;45.186;9.792;2023-04-25T01:48:50;7.88;;;2.42;;
51296;SDS011;37380;45.186;9.792;2023-04-25T01:51:19;2.42;;;1.30;;
51296;SDS011;37380;45.186;9.792;2023-04-25T01:53:51;1.48;;;1.38;;
51296;SDS011;37380;45.186;9.792;2023-04-25T01:56:20;1.77;;;1.55;;
51296;SDS011;37380;45.186;9.792;2023-04-25T01:58:49;1.75;;;1.65;;
51296;SDS011;37380;45.186;9.792;2023-04-25T02:01:32;7.57;;;1.55;;
51296;SDS011;37380;45.186;9.792;2023-04-25T02:04:15;2.65;;;1.92;;
51296;SDS011;37380;45.186;9.792;2023-04-25T02:06:50;1.80;;;1.65;;
51296;SDS011;37380;45.186;9.792;2023-04-25T02:09:59;5.65;;;2.22;;
51296;SDS011;37380;45.186;9.792;2023-04-25T02:13:14;3.38;;;1.90;;
51296;SDS011;37380;45.186;9.792;2023-04-25T02:15:53;1.95;;;1.70;;
51296;SDS011;37380;45.186;9.792;2023-04-25T02:18:22;2.42;;;2.22;;
51296;SDS011;37380;45.186;9.792;2023-04-25T02:20:50;4.07;;;2.20;;
51296;SDS011;37380;45.186;9.792;2023-04-25T02:23:19;4.13;;;2.10;;
51296;SDS011;37380;45.186;9.792;2023-04-25T02:25:50;2.72;;;2.00;;
51296;SDS011;37380;45.186;9.792;2023-04-25T02:28:27;9.23;;;2.60;;
51296;SDS011;37380;45.186;9.792;2023-04-25T02:31:21;5.32;;;4.07;;
51296;SDS011;37380;45.186;9.792;2023-04-25T02:33:54;5.30;;;4.20;;
51296;SDS011;37380;45.186;9.792;2023-04-25T02:36:28;17.92;;;7.28;;
51296;SDS011;37380;45.186;9.792;2023-04-25T02:39:06;13.55;;;9.65;;
51296;SDS011;37380;45.186;9.792;2023-04-25T02:42:01;7.93;;;4.65;;
51296;SDS011;37380;45.186;9.792;2023-04-25T02:44:30;6.97;;;3.47;;
51296;SDS011;37380;45.186;9.792;2023-04-25T02:46:57;4.68;;;2.80;;
51296;SDS011;37380;45.186;9.792;2023-04-25T02:49:26;10.98;;;2.88;;
51296;SDS011;37380;45.186;9.792;2023-04-25T02:51:56;3.38;;;2.42;;
51296;SDS011;37380;45.186;9.792;2023-04-25T02:54:24;9.88;;;2.40;;
51296;SDS011;37380;45.186;9.792;2023-04-25T02:56:54;2.45;;;2.15;;
51296;SDS011;37380;45.186;9.792;2023-04-25T02:59:28;7.68;;;2.75;;
51296;SDS011;37380;45.186;9.792;2023-04-25T03:02:07;2.58;;;2.30;;
51296;SDS011;37380;45.186;9.792;2023-04-25T03:05:07;4.93;;;2.03;;
51296;SDS011;37380;45.186;9.792;2023-04-25T03:07:38;6.25;;;3.22;;
51296;SDS011;37380;45.186;9.792;2023-04-25T03:10:09;7.40;;;3.35;;
51296;SDS011;37380;45.186;9.792;2023-04-25T03:12:37;8.05;;;2.55;;
51296;SDS011;37380;45.186;9.792;2023-04-25T03:15:06;8.40;;;2.63;;
51296;SDS011;37380;45.186;9.792;2023-04-25T03:17:35;3.65;;;2.80;;
51296;SDS011;37380;45.186;9.792;2023-04-25T03:20:05;4.65;;;2.58;;
51296;SDS011;37380;45.186;9.792;2023-04-25T03:22:36;5.55;;;3.55;;
51296;SDS011;37380;45.186;9.792;2023-04-25T03:25:08;8.85;;;3.33;;
51296;SDS011;37380;45.186;9.792;2023-04-25T03:27:45;4.15;;;3.78;;
51296;SDS011;37380;45.186;9.792;2023-04-25T03:30:45;6.00;;;3.47;;
51296;SDS011;37380;45.186;9.792;2023-04-25T03:33:46;3.70;;;2.75;;
51296;SDS011;37380;45.186;9.792;2023-04-25T03:36:26;5.22;;;3.28;;
51296;SDS011;37380;45.186;9.792;2023-04-25T03:39:05;4.97;;;2.92;;
51296;SDS011;37380;45.186;9.792;2023-04-25T03:41:56;3.65;;;3.17;;
51296;SDS011;37380;45.186;9.792;2023-04-25T03:44:28;7.15;;;2.92;;
51296;SDS011;37380;45.186;9.792;2023-04-25T03:47:01;5.50;;;3.67;;
51296;SDS011;37380;45.186;9.792;2023-04-25T03:49:38;4.70;;;3.05;;
51296;SDS011;37380;45.186;9.792;2023-04-25T03:52:12;4.50;;;3.50;;
51296;SDS011;37380;45.186;9.792;2023-04-25T03:54:45;10.77;;;4.05;;
51296;SDS011;37380;45.186;9.792;2023-04-25T03:57:17;11.53;;;3.57;;
51296;SDS011;37380;45.186;9.792;2023-04-25T03:59:49;4.25;;;3.55;;
51296;SDS011;37380;45.186;9.792;2023-04-25T04:02:19;20.38;;;4.25;;
51296;SDS011;37380;45.186;9.792;2023-04-25T04:04:53;6.75;;;3.92;;
51296;SDS011;37380;45.186;9.792;2023-04-25T04:07:24;3.42;;;3.13;;
51296;SDS011;37380;45.186;9.792;2023-04-25T04:09:58;6.80;;;4.13;;
51296;SDS011;37380;45.186;9.792;2023-04-25T04:12:35;13.98;;;3.63;;
51296;SDS011;37380;45.186;9.792;2023-04-25T04:15:04;4.70;;;4.20;;
51296;SDS011;37380;45.186;9.792;2023-04-25T04:17:34;19.42;;;4.30;;
51296;SDS011;37380;45.186;9.792;2023-04-25T04:20:02;7.25;;;4.88;;
51296;SDS011;37380;45.186;9.792;2023-04-25T04:22:36;8.75;;;4.45;;
51296;SDS011;37380;45.186;9.792;2023-04-25T04:25:09;4.83;;;4.33;;
51296;SDS011;37380;45.186;9.792;2023-04-25T04:28:13;6.97;;;4.15;;
51296;SDS011;37380;45.186;9.792;2023-04-25T04:31:29;3.65;;;3.35;;
51296;SDS011;37380;45.186;9.792;2023-04-25T04:34:02;6.32;;;3.45;;
51296;SDS011;37380;45.186;9.792;2023-04-25T04:36:33;6.05;;;3.95;;
51296;SDS011;37380;45.186;9.792;2023-04-25T04:39:09;7.85;;;4.30;;
51296;SDS011;37380;45.186;9.792;2023-04-25T04:42:24;10.63;;;4.07;;
51296;SDS011;37380;45.186;9.792;2023-04-25T04:45:26;8.10;;;4.85;;
51296;SDS011;37380;45.186;9.792;2023-04-25T04:48:06;5.22;;;3.55;;
51296;SDS011;37380;45.186;9.792;2023-04-25T04:50:54;4.28;;;3.88;;
51296;SDS011;37380;45.186;9.792;2023-04-25T04:53:52;15.77;;;3.80;;
51296;SDS011;37380;45.186;9.792;2023-04-25T04:56:42;7.32;;;4.30;;
51296;SDS011;37380;45.186;9.792;2023-04-25T04:59:27;3.97;;;3.30;;
51296;SDS011;37380;45.186;9.792;2023-04-25T05:02:08;6.72;;;3.72;;
51296;SDS011;37380;45.186;9.792;2023-04-25T05:05:32;16.95;;;3.35;;
51296;SDS011;37380;45.186;9.792;2023-04-25T05:08:38;10.90;;;3.65;;
51296;SDS011;37380;45.186;9.792;2023-04-25T05:11:54;4.40;;;3.67;;
51296;SDS011;37380;45.186;9.792;2023-04-25T05:14:45;12.18;;;2.42;;
51296;SDS011;37380;45.186;9.792;2023-04-25T05:17:43;7.65;;;3.33;;
51296;SDS011;37380;45.186;9.792;2023-04-25T05:21:13;3.08;;;2.85;;
51296;SDS011;37380;45.186;9.792;2023-04-25T05:24:00;12.57;;;3.90;;
51296;SDS011;37380;45.186;9.792;2023-04-25T05:26:52;8.70;;;3.47;;
51296;SDS011;37380;45.186;9.792;2023-04-25T05:29:27;5.55;;;3.45;;
51296;SDS011;37380;45.186;9.792;2023-04-25T05:32:31;7.03;;;3.55;;
51296;SDS011;37380;45.186;9.792;2023-04-25T05:35:04;3.70;;;3.40;;
51296;SDS011;37380;45.186;9.792;2023-04-25T05:37:48;6.18;;;3.50;;
51296;SDS011;37380;45.186;9.792;2023-04-25T05:41:05;4.00;;;3.40;;
51296;SDS011;37380;45.186;9.792;2023-04-25T05:43:59;3.65;;;2.70;;
51296;SDS011;37380;45.186;9.792;2023-04-25T05:46:39;3.67;;;3.20;;
51296;SDS011;37380;45.186;9.792;2023-04-25T05:49:43;8.95;;;3.53;;
51296;SDS011;37380;45.186;9.792;2023-04-25T05:52:29;5.13;;;3.07;;
51296;SDS011;37380;45.186;9.792;2023-04-25T05:55:17;6.75;;;3.55;;
51296;SDS011;37380;45.186;9.792;2023-04-25T05:57:53;7.38;;;3.28;;
51296;SDS011;37380;45.186;9.792;2023-04-25T06:00:22;2.40;;;2.20;;
51296;SDS011;37380;45.186;9.792;2023-04-25T06:03:29;4.00;;;3.22;;
51296;SDS011;37380;45.186;9.792;2023-04-25T06:06:38;3.78;;;2.58;;
51296;SDS011;37380;45.186;9.792;2023-04-25T06:09:39;14.68;;;3.17;;
51296;SDS011;37380;45.186;9.792;2023-04-25T06:12:17;5.60;;;2.90;;
51296;SDS011;37380;45.186;9.792;2023-04-25T06:14:51;3.95;;;2.50;;
51296;SDS011;37380;45.186;9.792;2023-04-25T06:17:22;7.38;;;2.85;;
51296;SDS011;37380;45.186;9.792;2023-04-25T06:20:03;3.83;;;2.50;;
51296;SDS011;37380;45.186;9.792;2023-04-25T06:22:39;8.75;;;2.63;;
51296;SDS011;37380;45.186;9.792;2023-04-25T06:25:14;6.13;;;2.70;;
51296;SDS011;37380;45.186;9.792;2023-04-25T06:27:58;8.10;;;4.97;;
51296;SDS011;37380;45.186;9.792;2023-04-25T06:31:01;7.47;;;3.60;;
51296;SDS011;37380;45.186;9.792;2023-04-25T06:34:05;10.52;;;7.90;;
51296;SDS011;37380;45.186;9.792;2023-04-25T06:36:39;4.00;;;2.90;;
51296;SDS011;37380;45.186;9.792;2023-04-25T06:39:11;13.02;;;7.93;;
51296;SDS011;37380;45.186;9.792;2023-04-25T06:41:42;6.80;;;5.18;;
51296;SDS011;37380;45.186;9.792;2023-04-25T06:44:30;5.75;;;3.58;;
51296;SDS011;37380;45.186;9.792;2023-04-25T06:47:05;4.32;;;3.88;;
51296;SDS011;37380;45.186;9.792;2023-04-25T06:49:40;4.95;;;3.50;;
51296;SDS011;37380;45.186;9.792;2023-04-25T06:52:14;3.63;;;3.30;;
51296;SDS011;37380;45.186;9.792;2023-04-25T06:54:45;5.57;;;4.90;;
51296;SDS011;37380;45.186;9.792;2023-04-25T06:57:40;8.32;;;7.07;;
51296;SDS011;37380;45.186;9.792;2023-04-25T07:00:57;8.23;;;4.53;;
51296;SDS011;37380;45.186;9.792;2023-04-25T07:03:53;4.55;;;3.85;;
51296;SDS011;37380;45.186;9.792;2023-04-25T07:06:25;5.30;;;2.88;;
51296;SDS011;37380;45.186;9.792;2023-04-25T07:08:57;5.97;;;3.70;;
51296;SDS011;37380;45.186;9.792;2023-04-25T07:11:28;4.25;;;2.20;;
51296;SDS011;37380;45.186;9.792;2023-04-25T07:13:56;6.57;;;2.80;;
51296;SDS011;37380;45.186;9.792;2023-04-25T07:16:36;4.68;;;2.63;;
51296;SDS011;37380;45.186;9.792;2023-04-25T07:19:24;4.72;;;2.95;;
51296;SDS011;37380;45.186;9.792;2023-04-25T07:22:28;5.90;;;4.72;;
51296;SDS011;37380;45.186;9.792;2023-04-25T07:28:10;4.55;;;3.30;;
51296;SDS011;37380;45.186;9.792;2023-04-25T07:31:20;3.47;;;2.03;;
51296;SDS011;37380;45.186;9.792;2023-04-25T07:33:52;2.17;;;1.98;;
51296;SDS011;37380;45.186;9.792;2023-04-25T07:36:22;1.98;;;1.63;;
51296;SDS011;37380;45.186;9.792;2023-04-25T07:38:55;2.13;;;1.55;;
51296;SDS011;37380;45.186;9.792;2023-04-25T07:41:34;1.80;;;1.70;;
51296;SDS011;37380;45.186;9.792;2023-04-25T07:44:25;2.53;;;1.52;;
51296;SDS011;37380;45.186;9.792;2023-04-25T07:47:39;1.38;;;1.27;;
51296;SDS011;37380;45.186;9.792;2023-04-25T07:50:09;5.88;;;1.52;;
51296;SDS011;37380;45.186;9.792;2023-04-25T07:52:49;2.65;;;1.50;;
51296;SDS011;37380;45.186;9.792;2023-04-25T07:55:26;6.18;;;1.20;;
51296;SDS011;37380;45.186;9.792;2023-04-25T07:58:11;1.73;;;1.35;;
51296;SDS011;37380;45.186;9.792;2023-04-25T08:01:00;3.83;;;1.25;;
51296;SDS011;37380;45.186;9.792;2023-04-25T08:03:51;2.80;;;1.20;;
51296;SDS011;37380;45.186;9.792;2023-04-25T08:06:35;2.33;;;1.63;;
51296;SDS011;37380;45.186;9.792;2023-04-25T08:09:21;2.15;;;1.40;;
51296;SDS011;37380;45.186;9.792;2023-04-25T08:11:54;3.30;;;1.77;;
51296;SDS011;37380;45.186;9.792;2023-04-25T08:14:34;1.33;;;1.20;;
51296;SDS011;37380;45.186;9.792;2023-04-25T08:17:29;3.33;;;1.33;;
51296;SDS011;37380;45.186;9.792;2023-04-25T08:20:09;0.90;;;0.80;;
51296;SDS011;37380;45.186;9.792;2023-04-25T08:22:50;2.13;;;1.10;;
51296;SDS011;37380;45.186;9.792;2023-04-25T08:25:46;3.85;;;1.52;;
51296;SDS011;37380;45.186;9.792;2023-04-25T08:28:55;2.00;;;1.05;;
51296;SDS011;37380;45.186;9.792;2023-04-25T08:32:01;5.30;;;1.10;;
51296;SDS011;37380;45.186;9.792;2023-04-25T08:34:34;2.00;;;1.50;;
51296;SDS011;37380;45.186;9.792;2023-04-25T08:37:14;1.70;;;0.90;;
51296;SDS011;37380;45.186;9.792;2023-04-25T08:40:04;2.67;;;1.15;;
51296;SDS011;37380;45.186;9.792;2023-04-25T08:43:07;4.43;;;1.30;;
51296;SDS011;37380;45.186;9.792;2023-04-25T08:46:03;1.02;;;0.95;;
51296;SDS011;37380;45.186;9.792;2023-04-25T08:48:49;3.72;;;1.30;;
51296;SDS011;37380;45.186;9.792;2023-04-25T08:51:29;1.50;;;1.40;;
51296;SDS011;37380;45.186;9.792;2023-04-25T08:54:10;3.80;;;1.48;;
51296;SDS011;37380;45.186;9.792;2023-04-25T08:57:04;1.63;;;1.00;;
51296;SDS011;37380;45.186;9.792;2023-04-25T08:59:46;1.50;;;1.40;;
51296;SDS011;37380;45.186;9.792;2023-04-25T09:02:54;1.17;;;0.80;;
51296;SDS011;37380;45.186;9.792;2023-04-25T09:05:33;2.60;;;1.08;;
51296;SDS011;37380;45.186;9.792;2023-04-25T09:08:25;2.55;;;1.30;;
51296;SDS011;37380;45.186;9.792;2023-04-25T09:11:19;1.15;;;1.00;;
51296;SDS011;37380;45.186;9.792;2023-04-25T09:14:09;1.20;;;0.88;;
51296;SDS011;37380;45.186;9.792;2023-04-25T09:17:06;0.90;;;0.90;;
51296;SDS011;37380;45.186;9.792;2023-04-25T09:19:41;2.20;;;1.00;;
51296;SDS011;37380;45.186;9.792;2023-04-25T09:22:20;2.88;;;0.88;;
51296;SDS011;37380;45.186;9.792;2023-04-25T09:24:49;2.20;;;1.33;;
51296;SDS011;37380;45.186;9.792;2023-04-25T09:27:28;2.70;;;1.23;;
51296;SDS011;37380;45.186;9.792;2023-04-25T09:30:41;0.95;;;0.88;;
51296;SDS011;37380;45.186;9.792;2023-04-25T09:34:00;1.98;;;1.15;;
51296;SDS011;37380;45.186;9.792;2023-04-25T09:36:44;3.63;;;1.02;;
51296;SDS011;37380;45.186;9.792;2023-04-25T09:39:53;2.00;;;0.80;;
51296;SDS011;37380;45.186;9.792;2023-04-25T09:43:02;1.00;;;0.95;;
51296;SDS011;37380;45.186;9.792;2023-04-25T09:46:10;1.20;;;1.10;;
51296;SDS011;37380;45.186;9.792;2023-04-25T09:48:59;0.82;;;0.80;;
51296;SDS011;37380;45.186;9.792;2023-04-25T09:51:56;0.63;;;0.60;;
51296;SDS011;37380;45.186;9.792;2023-04-25T09:54:50;3.60;;;0.82;;
51296;SDS011;37380;45.186;9.792;2023-04-25T09:57:34;1.65;;;0.95;;
51296;SDS011;37380;45.186;9.792;2023-04-25T10:00:12;7.68;;;1.23;;
51296;SDS011;37380;45.186;9.792;2023-04-25T10:02:51;0.73;;;0.47;;
51296;SDS011;37380;45.186;9.792;2023-04-25T10:05:42;1.48;;;1.13;;
51296;SDS011;37380;45.186;9.792;2023-04-25T10:08:15;2.70;;;1.20;;
51296;SDS011;37380;45.186;9.792;2023-04-25T10:13:48;1.10;;;1.00;;
51296;SDS011;37380;45.186;9.792;2023-04-25T10:16:24;1.40;;;0.60;;
51296;SDS011;37380;45.186;9.792;2023-04-25T10:18:53;1.83;;;0.60;;
51296;SDS011;37380;45.186;9.792;2023-04-25T10:21:25;1.90;;;0.65;;
51296;SDS011;37380;45.186;9.792;2023-04-25T10:24:03;4.10;;;0.55;;
51296;SDS011;37380;45.186;9.792;2023-04-25T10:26:42;1.50;;;1.00;;
51296;SDS011;37380;45.186;9.792;2023-04-25T10:30:07;0.50;;;0.43;;
51296;SDS011;37380;45.186;9.792;2023-04-25T10:33:15;2.03;;;0.60;;
51296;SDS011;37380;45.186;9.792;2023-04-25T10:35:52;5.10;;;2.67;;
51296;SDS011;37380;45.186;9.792;2023-04-25T10:38:58;3.05;;;1.35;;
51296;SDS011;37380;45.186;9.792;2023-04-25T10:42:02;1.10;;;0.73;;
51296;SDS011;37380;45.186;9.792;2023-04-25T10:44:47;2.60;;;2.30;;
51296;SDS011;37380;45.186;9.792;2023-04-25T10:47:55;4.15;;;1.98;;
51296;SDS011;37380;45.186;9.792;2023-04-25T10:50:23;2.20;;;1.73;;
51296;SDS011;37380;45.186;9.792;2023-04-25T10:53:15;0.67;;;0.67;;
51296;SDS011;37380;45.186;9.792;2023-04-25T10:55:49;5.60;;;0.73;;
51296;SDS011;37380;45.186;9.792;2023-04-25T10:58:21;4.85;;;1.83;;
51296;SDS011;37380;45.186;9.792;2023-04-25T11:00:49;6.18;;;0.80;;
51296;SDS011;37380;45.186;9.792;2023-04-25T11:05:51;2.50;;;1.85;;
51296;SDS011;37380;45.186;9.792;2023-04-25T11:08:50;4.03;;;0.90;;
51296;SDS011;37380;45.186;9.792;2023-04-25T11:11:53;1.17;;;0.63;;
51296;SDS011;37380;45.186;9.792;2023-04-25T11:14:27;0.65;;;0.65;;
51296;SDS011;37380;45.186;9.792;2023-04-25T11:17:21;0.50;;;0.50;;
51296;SDS011;37380;45.186;9.792;2023-04-25T11:19:54;3.90;;;0.97;;
51296;SDS011;37380;45.186;9.792;2023-04-25T11:22:24;1.25;;;1.15;;
51296;SDS011;37380;45.186;9.792;2023-04-25T11:24:54;4.18;;;1.38;;
51296;SDS011;37380;45.186;9.792;2023-04-25T11:27:28;1.73;;;1.42;;
51296;SDS011;37380;45.186;9.792;2023-04-25T11:30:29;1.20;;;0.90;;
51296;SDS011;37380;45.186;9.792;2023-04-25T11:33:01;4.30;;;1.58;;
51296;SDS011;37380;45.186;9.792;2023-04-25T11:35:36;6.78;;;1.02;;
51296;SDS011;37380;45.186;9.792;2023-04-25T11:38:30;2.65;;;1.00;;
51296;SDS011;37380;45.186;9.792;2023-04-25T11:41:00;5.50;;;1.60;;
51296;SDS011;37380;45.186;9.792;2023-04-25T11:43:35;3.15;;;1.55;;
51296;SDS011;37380;45.186;9.792;2023-04-25T11:46:36;1.77;;;1.17;;
51296;SDS011;37380;45.186;9.792;2023-04-25T11:49:30;1.50;;;1.00;;
51296;SDS011;37380;45.186;9.792;2023-04-25T11:51:59;3.08;;;1.23;;
51296;SDS011;37380;45.186;9.792;2023-04-25T11:54:26;1.92;;;1.48;;
51296;SDS011;37380;45.186;9.792;2023-04-25T11:56:53;1.00;;;0.90;;
51296;SDS011;37380;45.186;9.792;2023-04-25T11:59:36;0.95;;;0.80;;
51296;SDS011;37380;45.186;9.792;2023-04-25T12:02:03;7.78;;;1.05;;
51296;SDS011;37380;45.186;9.792;2023-04-25T12:04:33;1.15;;;0.88;;
51296;SDS011;37380;45.186;9.792;2023-04-25T12:07:01;2.85;;;1.52;;
51296;SDS011;37380;45.186;9.792;2023-04-25T12:09:33;3.28;;;1.95;;
51296;SDS011;37380;45.186;9.792;2023-04-25T12:12:09;1.20;;;0.85;;
51296;SDS011;37380;45.186;9.792;2023-04-25T12:18:43;7.07;;;2.65;;
51296;SDS011;37380;45.186;9.792;2023-04-25T12:21:10;4.00;;;1.58;;
51296;SDS011;37380;45.186;9.792;2023-04-25T12:23:44;3.45;;;3.15;;
51296;SDS011;37380;45.186;9.792;2023-04-25T12:27:01;5.38;;;1.17;;
51296;SDS011;37380;45.186;9.792;2023-04-25T12:29:36;5.18;;;2.42;;
51296;SDS011;37380;45.186;9.792;2023-04-25T12:32:40;31.25;;;8.93;;
51296;SDS011;37380;45.186;9.792;2023-04-25T12:35:34;4.13;;;1.05;;
51296;SDS011;37380;45.186;9.792;2023-04-25T12:38:01;7.18;;;3.85;;
51296;SDS011;37380;45.186;9.792;2023-04-25T12:40:28;2.70;;;1.08;;
51296;SDS011;37380;45.186;9.792;2023-04-25T12:42:55;3.95;;;1.63;;
51296;SDS011;37380;45.186;9.792;2023-04-25T12:45:24;3.10;;;1.30;;
51296;SDS011;37380;45.186;9.792;2023-04-25T12:47:51;3.70;;;0.93;;
51296;SDS011;37380;45.186;9.792;2023-04-25T12:50:18;5.50;;;1.15;;
51296;SDS011;37380;45.186;9.792;2023-04-25T12:52:45;4.40;;;1.23;;
51296;SDS011;37380;45.186;9.792;2023-04-25T12:55:12;1.90;;;1.10;;
51296;SDS011;37380;45.186;9.792;2023-04-25T12:57:39;4.35;;;1.60;;
51296;SDS011;37380;45.186;9.792;2023-04-25T13:00:13;2.10;;;1.27;;
51296;SDS011;37380;45.186;9.792;2023-04-25T13:03:14;1.80;;;1.10;;
51296;SDS011;37380;45.186;9.792;2023-04-25T13:06:16;4.22;;;1.58;;
51296;SDS011;37380;45.186;9.792;2023-04-25T13:09:18;4.55;;;2.17;;
51296;SDS011;37380;45.186;9.792;2023-04-25T13:11:47;3.28;;;1.40;;
51296;SDS011;37380;45.186;9.792;2023-04-25T13:14:14;4.63;;;1.65;;
51296;SDS011;37380;45.186;9.792;2023-04-25T13:16:42;3.20;;;1.63;;
51296;SDS011;37380;45.186;9.792;2023-04-25T13:19:10;6.40;;;1.50;;
51296;SDS011;37380;45.186;9.792;2023-04-25T13:21:38;2.30;;;1.10;;
51296;SDS011;37380;45.186;9.792;2023-04-25T13:24:11;4.88;;;1.50;;
51296;SDS011;37380;45.186;9.792;2023-04-25T13:27:12;3.10;;;1.40;;
51296;SDS011;37380;45.186;9.792;2023-04-25T13:30:19;1.40;;;0.93;;
51296;SDS011;37380;45.186;9.792;2023-04-25T13:33:14;9.73;;;1.30;;
51296;SDS011;37380;45.186;9.792;2023-04-25T13:35:41;1.63;;;1.25;;
51296;SDS011;37380;45.186;9.792;2023-04-25T13:38:09;1.52;;;1.08;;
51296;SDS011;37380;45.186;9.792;2023-04-25T13:40:36;2.40;;;1.30;;
51296;SDS011;37380;45.186;9.792;2023-04-25T13:43:03;7.85;;;1.65;;
51296;SDS011;37380;45.186;9.792;2023-04-25T13:45:30;3.17;;;1.80;;
51296;SDS011;37380;45.186;9.792;2023-04-25T13:47:59;2.55;;;1.20;;
51296;SDS011;37380;45.186;9.792;2023-04-25T13:50:27;3.35;;;1.20;;
51296;SDS011;37380;45.186;9.792;2023-04-25T13:52:54;3.75;;;2.08;;
51296;SDS011;37380;45.186;9.792;2023-04-25T13:55:21;4.20;;;1.60;;
51296;SDS011;37380;45.186;9.792;2023-04-25T13:57:48;3.63;;;1.92;;
51296;SDS011;37380;45.186;9.792;2023-04-25T14:00:22;3.08;;;1.88;;
51296;SDS011;37380;45.186;9.792;2023-04-25T14:03:23;3.00;;;1.63;;
51296;SDS011;37380;45.186;9.792;2023-04-25T14:06:27;1.52;;;1.20;;
51296;SDS011;37380;45.186;9.792;2023-04-25T14:08:58;3.60;;;1.00;;
51296;SDS011;37380;45.186;9.792;2023-04-25T14:11:47;2.58;;;0.73;;
51296;SDS011;37380;45.186;9.792;2023-04-25T14:14:14;2.30;;;1.02;;
51296;SDS011;37380;45.186;9.792;2023-04-25T14:16:49;13.35;;;1.77;;
51296;SDS011;37380;45.186;9.792;2023-04-25T14:19:45;1.95;;;1.00;;
51296;SDS011;37380;45.186;9.792;2023-04-25T14:22:21;3.03;;;0.80;;
51296;SDS011;37380;45.186;9.792;2023-04-25T14:25:22;0.57;;;0.57;;
51296;SDS011;37380;45.186;9.792;2023-04-25T14:28:23;3.83;;;0.80;;
51296;SDS011;37380;45.186;9.792;2023-04-25T14:31:28;1.08;;;0.75;;
51296;SDS011;37380;45.186;9.792;2023-04-25T14:34:47;5.95;;;0.60;;
51296;SDS011;37380;45.186;9.792;2023-04-25T14:37:53;1.52;;;0.80;;
51296;SDS011;37380;45.186;9.792;2023-04-25T14:40:32;0.55;;;0.55;;
51296;SDS011;37380;45.186;9.792;2023-04-25T14:43:17;12.32;;;0.95;;
51296;SDS011;37380;45.186;9.792;2023-04-25T14:51:29;0.75;;;0.60;;
51296;SDS011;37380;45.186;9.792;2023-04-25T14:54:39;2.65;;;0.70;;
51296;SDS011;37380;45.186;9.792;2023-04-25T14:57:42;0.63;;;0.63;;
51296;SDS011;37380;45.186;9.792;2023-04-25T15:00:35;0.43;;;0.43;;
51296;SDS011;37380;45.186;9.792;2023-04-25T15:04:13;5.20;;;0.88;;
51296;SDS011;37380;45.186;9.792;2023-04-25T15:07:08;0.52;;;0.52;;
51296;SDS011;37380;45.186;9.792;2023-04-25T15:10:13;11.70;;;0.85;;
51296;SDS011;37380;45.186;9.792;2023-04-25T15:13:07;1.33;;;0.80;;
51296;SDS011;37380;45.186;9.792;2023-04-25T15:15:39;2.35;;;0.65;;
51296;SDS011;37380;45.186;9.792;2023-04-25T15:20:59;2.05;;;0.30;;
51296;SDS011;37380;45.186;9.792;2023-04-25T15:23:29;0.70;;;0.70;;
51296;SDS011;37380;45.186;9.792;2023-04-25T15:25:57;1.05;;;0.50;;
51296;SDS011;37380;45.186;9.792;2023-04-25T15:28:31;1.52;;;0.70;;
51296;SDS011;37380;45.186;9.792;2023-04-25T15:31:25;2.78;;;1.23;;
51296;SDS011;37380;45.186;9.792;2023-04-25T15:33:52;2.63;;;1.40;;
51296;SDS011;37380;45.186;9.792;2023-04-25T15:36:20;3.63;;;0.63;;
51296;SDS011;37380;45.186;9.792;2023-04-25T15:38:48;2.90;;;0.93;;
51296;SDS011;37380;45.186;9.792;2023-04-25T15:41:16;0.98;;;0.82;;
51296;SDS011;37380;45.186;9.792;2023-04-25T15:43:44;2.85;;;1.23;;
51296;SDS011;37380;45.186;9.792;2023-04-25T15:46:13;1.50;;;0.70;;
51296;SDS011;37380;45.186;9.792;2023-04-25T15:48:47;1.20;;;0.70;;
51296;SDS011;37380;45.186;9.792;2023-04-25T15:51:41;5.15;;;0.68;;
51296;SDS011;37380;45.186;9.792;2023-04-25T15:54:09;3.03;;;1.08;;
51296;SDS011;37380;45.186;9.792;2023-04-25T15:56:36;1.83;;;1.23;;
51296;SDS011;37380;45.186;9.792;2023-04-25T15:59:03;3.35;;;1.80;;
51296;SDS011;37380;45.186;9.792;2023-04-25T16:01:30;3.30;;;1.27;;
51296;SDS011;37380;45.186;9.792;2023-04-25T16:03:58;6.95;;;1.75;;
51296;SDS011;37380;45.186;9.792;2023-04-25T16:06:33;2.55;;;1.45;;
51296;SDS011;37380;45.186;9.792;2023-04-25T16:09:35;0.88;;;0.80;;
51296;SDS011;37380;45.186;9.792;2023-04-25T16:12:30;1.05;;;0.77;;
51296;SDS011;37380;45.186;9.792;2023-04-25T16:14:57;9.05;;;1.00;;
51296;SDS011;37380;45.186;9.792;2023-04-25T16:17:24;0.98;;;0.90;;
51296;SDS011;37380;45.186;9.792;2023-04-25T16:19:53;1.13;;;0.90;;
51296;SDS011;37380;45.186;9.792;2023-04-25T16:22:21;1.23;;;0.85;;
51296;SDS011;37380;45.186;9.792;2023-04-25T16:24:48;0.57;;;0.55;;
51296;SDS011;37380;45.186;9.792;2023-04-25T16:27:16;0.65;;;0.63;;
51296;SDS011;37380;45.186;9.792;2023-04-25T16:29:49;4.05;;;1.10;;
51296;SDS011;37380;45.186;9.792;2023-04-25T16:32:43;1.70;;;0.90;;
51296;SDS011;37380;45.186;9.792;2023-04-25T16:35:11;1.85;;;1.25;;